sensor_id;sensor_type;location;lat;lon;timestamp;temperature;humidity
58993;DHT22;44782;0.000;0.000;2023-11-21T00:00:36;17.90;62.70
58993;DHT22;44782;0.000;0.000;2023-11-21T00:02:52;17.90;62.70
58993;DHT22;44782;0.000;0.000;2023-11-21T00:05:11;17.90;62.80
58993;DHT22;44782;0.000;0.000;2023-11-21T00:07:29;17.90;62.60
58993;DHT22;44782;0.000;0.000;2023-11-21T00:09:45;17.90;62.70
58993;DHT22;44782;0.000;0.000;2023-11-21T00:12:00;17.80;62.70
58993;DHT22;44782;0.000;0.000;2023-11-21T00:14:17;17.90;62.80
58993;DHT22;44782;0.000;0.000;2023-11-21T00:16:33;17.80;62.60
58993;DHT22;44782;0.000;0.000;2023-11-21T00:18:49;17.80;62.60
58993;DHT22;44782;0.000;0.000;2023-11-21T00:21:05;17.80;62.60
58993;DHT22;44782;0.000;0.000;2023-11-21T00:23:21;17.80;62.60
58993;DHT22;44782;0.000;0.000;2023-11-21T00:25:36;17.80;62.60
58993;DHT22;44782;0.000;0.000;2023-11-21T00:27:52;17.80;62.60
58993;DHT22;44782;0.000;0.000;2023-11-21T00:30:08;17.80;62.60
58993;DHT22;44782;0.000;0.000;2023-11-21T00:32:24;17.80;62.60
58993;DHT22;44782;0.000;0.000;2023-11-21T00:34:39;17.80;62.60
58993;DHT22;44782;0.000;0.000;2023-11-21T00:36:55;17.80;62.60
58993;DHT22;44782;0.000;0.000;2023-11-21T00:39:11;17.80;62.60
58993;DHT22;44782;0.000;0.000;2023-11-21T00:41:27;17.80;62.60
58993;DHT22;44782;0.000;0.000;2023-11-21T00:43:43;17.70;62.50
58993;DHT22;44782;0.000;0.000;2023-11-21T00:45:59;17.80;62.60
58993;DHT22;44782;0.000;0.000;2023-11-21T00:48:15;17.80;62.60
58993;DHT22;44782;0.000;0.000;2023-11-21T00:50:31;17.70;62.50
58993;DHT22;44782;0.000;0.000;2023-11-21T00:52:46;17.70;62.50
58993;DHT22;44782;0.000;0.000;2023-11-21T00:55:03;17.70;62.40
58993;DHT22;44782;0.000;0.000;2023-11-21T00:57:19;17.70;62.50
58993;DHT22;44782;0.000;0.000;2023-11-21T00:59:35;17.70;62.50
58993;DHT22;44782;0.000;0.000;2023-11-21T01:01:50;17.70;62.40
58993;DHT22;44782;0.000;0.000;2023-11-21T01:04:06;17.70;62.40
58993;DHT22;44782;0.000;0.000;2023-11-21T01:06:22;17.70;62.40
58993;DHT22;44782;0.000;0.000;2023-11-21T01:08:38;17.70;62.40
58993;DHT22;44782;0.000;0.000;2023-11-21T01:10:53;17.70;62.40
58993;DHT22;44782;0.000;0.000;2023-11-21T01:13:10;17.70;62.40
58993;DHT22;44782;0.000;0.000;2023-11-21T01:15:26;17.70;62.40
58993;DHT22;44782;0.000;0.000;2023-11-21T01:17:41;17.70;62.40
58993;DHT22;44782;0.000;0.000;2023-11-21T01:19:58;17.70;62.90
58993;DHT22;44782;0.000;0.000;2023-11-21T01:22:13;17.70;62.40
58993;DHT22;44782;0.000;0.000;2023-11-21T01:24:29;17.70;62.40
58993;DHT22;44782;0.000;0.000;2023-11-21T01:26:45;17.70;62.40
58993;DHT22;44782;0.000;0.000;2023-11-21T01:29:02;17.70;62.40
58993;DHT22;44782;0.000;0.000;2023-11-21T01:31:17;17.70;62.40
58993;DHT22;44782;0.000;0.000;2023-11-21T01:33:33;17.70;62.40
58993;DHT22;44782;0.000;0.000;2023-11-21T01:35:49;17.60;62.30
58993;DHT22;44782;0.000;0.000;2023-11-21T01:38:04;17.60;62.30
58993;DHT22;44782;0.000;0.000;2023-11-21T01:40:20;17.60;62.30
58993;DHT22;44782;0.000;0.000;2023-11-21T01:42:36;17.60;62.40
58993;DHT22;44782;0.000;0.000;2023-11-21T01:44:52;17.60;62.40
58993;DHT22;44782;0.000;0.000;2023-11-21T01:47:08;17.60;62.40
58993;DHT22;44782;0.000;0.000;2023-11-21T01:49:24;17.60;62.40
58993;DHT22;44782;0.000;0.000;2023-11-21T01:51:42;17.60;62.40
58993;DHT22;44782;0.000;0.000;2023-11-21T01:53:59;17.60;62.40
58993;DHT22;44782;0.000;0.000;2023-11-21T01:56:14;17.60;62.40
58993;DHT22;44782;0.000;0.000;2023-11-21T01:58:31;17.60;62.40
58993;DHT22;44782;0.000;0.000;2023-11-21T02:00:48;17.60;62.40
58993;DHT22;44782;0.000;0.000;2023-11-21T02:03:06;17.60;62.40
58993;DHT22;44782;0.000;0.000;2023-11-21T02:05:22;17.60;62.40
58993;DHT22;44782;0.000;0.000;2023-11-21T02:10:03;17.60;62.40
58993;DHT22;44782;0.000;0.000;2023-11-21T02:12:20;17.60;62.40
58993;DHT22;44782;0.000;0.000;2023-11-21T02:14:35;17.60;62.40
58993;DHT22;44782;0.000;0.000;2023-11-21T02:16:52;17.50;62.30
58993;DHT22;44782;0.000;0.000;2023-11-21T02:19:07;17.60;62.40
58993;DHT22;44782;0.000;0.000;2023-11-21T02:21:25;17.50;62.40
58993;DHT22;44782;0.000;0.000;2023-11-21T02:23:42;17.60;62.40
58993;DHT22;44782;0.000;0.000;2023-11-21T02:25:59;17.50;62.40
58993;DHT22;44782;0.000;0.000;2023-11-21T02:28:19;17.60;62.40
58993;DHT22;44782;0.000;0.000;2023-11-21T02:30:41;17.50;62.40
58993;DHT22;44782;0.000;0.000;2023-11-21T02:32:58;17.50;62.40
58993;DHT22;44782;0.000;0.000;2023-11-21T02:35:14;17.50;62.40
58993;DHT22;44782;0.000;0.000;2023-11-21T02:37:31;17.50;62.40
58993;DHT22;44782;0.000;0.000;2023-11-21T02:39:46;17.50;62.50
58993;DHT22;44782;0.000;0.000;2023-11-21T02:42:02;17.50;62.50
58993;DHT22;44782;0.000;0.000;2023-11-21T02:44:18;17.50;62.50
58993;DHT22;44782;0.000;0.000;2023-11-21T02:46:34;17.50;62.50
58993;DHT22;44782;0.000;0.000;2023-11-21T02:48:50;17.50;62.50
58993;DHT22;44782;0.000;0.000;2023-11-21T02:51:06;17.50;62.50
58993;DHT22;44782;0.000;0.000;2023-11-21T02:53:22;17.50;62.50
58993;DHT22;44782;0.000;0.000;2023-11-21T02:55:39;17.50;62.50
58993;DHT22;44782;0.000;0.000;2023-11-21T02:57:55;17.50;62.50
58993;DHT22;44782;0.000;0.000;2023-11-21T03:00:12;17.50;62.50
58993;DHT22;44782;0.000;0.000;2023-11-21T03:02:30;17.50;62.50
58993;DHT22;44782;0.000;0.000;2023-11-21T03:04:46;17.50;62.60
58993;DHT22;44782;0.000;0.000;2023-11-21T03:07:04;17.50;62.60
58993;DHT22;44782;0.000;0.000;2023-11-21T03:09:20;17.50;62.60
58993;DHT22;44782;0.000;0.000;2023-11-21T03:11:36;17.40;62.50
58993;DHT22;44782;0.000;0.000;2023-11-21T03:13:52;17.40;62.50
58993;DHT22;44782;0.000;0.000;2023-11-21T03:16:11;17.40;62.50
58993;DHT22;44782;0.000;0.000;2023-11-21T03:18:27;17.50;62.50
58993;DHT22;44782;0.000;0.000;2023-11-21T03:20:44;17.40;62.50
58993;DHT22;44782;0.000;0.000;2023-11-21T03:23:02;17.40;62.50
58993;DHT22;44782;0.000;0.000;2023-11-21T03:25:19;17.40;62.50
58993;DHT22;44782;0.000;0.000;2023-11-21T03:27:34;17.40;62.50
58993;DHT22;44782;0.000;0.000;2023-11-21T03:29:50;17.40;62.50
58993;DHT22;44782;0.000;0.000;2023-11-21T03:32:06;17.40;62.50
58993;DHT22;44782;0.000;0.000;2023-11-21T03:34:27;17.40;62.50
58993;DHT22;44782;0.000;0.000;2023-11-21T03:36:43;17.40;62.40
58993;DHT22;44782;0.000;0.000;2023-11-21T03:38:59;17.40;62.40
58993;DHT22;44782;0.000;0.000;2023-11-21T03:41:15;17.40;62.50
58993;DHT22;44782;0.000;0.000;2023-11-21T03:43:30;17.40;62.40
58993;DHT22;44782;0.000;0.000;2023-11-21T03:45:46;17.40;62.50
58993;DHT22;44782;0.000;0.000;2023-11-21T03:48:02;17.40;62.40
58993;DHT22;44782;0.000;0.000;2023-11-21T03:50:17;17.40;62.40
58993;DHT22;44782;0.000;0.000;2023-11-21T03:52:33;17.40;62.40
58993;DHT22;44782;0.000;0.000;2023-11-21T03:54:49;17.40;62.40
58993;DHT22;44782;0.000;0.000;2023-11-21T03:57:04;17.40;62.40
58993;DHT22;44782;0.000;0.000;2023-11-21T03:59:20;17.40;62.40
58993;DHT22;44782;0.000;0.000;2023-11-21T04:01:36;17.40;62.40
58993;DHT22;44782;0.000;0.000;2023-11-21T04:03:51;17.30;62.40
58993;DHT22;44782;0.000;0.000;2023-11-21T04:06:07;17.30;62.30
58993;DHT22;44782;0.000;0.000;2023-11-21T04:08:23;17.30;62.30
58993;DHT22;44782;0.000;0.000;2023-11-21T04:10:39;17.30;62.20
58993;DHT22;44782;0.000;0.000;2023-11-21T04:12:54;17.30;62.30
58993;DHT22;44782;0.000;0.000;2023-11-21T04:15:11;17.30;62.30
58993;DHT22;44782;0.000;0.000;2023-11-21T04:17:27;17.30;62.20
58993;DHT22;44782;0.000;0.000;2023-11-21T04:19:43;17.30;62.20
58993;DHT22;44782;0.000;0.000;2023-11-21T04:21:59;17.30;62.20
58993;DHT22;44782;0.000;0.000;2023-11-21T04:24:14;17.30;62.20
58993;DHT22;44782;0.000;0.000;2023-11-21T04:26:30;17.30;62.20
58993;DHT22;44782;0.000;0.000;2023-11-21T04:28:46;17.30;62.20
58993;DHT22;44782;0.000;0.000;2023-11-21T04:31:01;17.30;62.20
58993;DHT22;44782;0.000;0.000;2023-11-21T04:33:17;17.30;62.20
58993;DHT22;44782;0.000;0.000;2023-11-21T04:35:33;17.30;62.20
58993;DHT22;44782;0.000;0.000;2023-11-21T04:37:48;17.30;62.20
58993;DHT22;44782;0.000;0.000;2023-11-21T04:40:06;17.30;62.20
58993;DHT22;44782;0.000;0.000;2023-11-21T04:42:22;17.30;62.20
58993;DHT22;44782;0.000;0.000;2023-11-21T04:44:38;17.30;62.20
58993;DHT22;44782;0.000;0.000;2023-11-21T04:46:56;17.30;62.20
58993;DHT22;44782;0.000;0.000;2023-11-21T04:49:11;17.30;62.20
58993;DHT22;44782;0.000;0.000;2023-11-21T04:51:27;17.20;62.20
58993;DHT22;44782;0.000;0.000;2023-11-21T04:53:43;17.20;62.10
58993;DHT22;44782;0.000;0.000;2023-11-21T04:55:58;17.20;62.20
58993;DHT22;44782;0.000;0.000;2023-11-21T04:58:14;17.30;62.20
58993;DHT22;44782;0.000;0.000;2023-11-21T05:00:30;17.20;62.20
58993;DHT22;44782;0.000;0.000;2023-11-21T05:02:45;17.20;62.10
58993;DHT22;44782;0.000;0.000;2023-11-21T05:05:02;17.20;62.10
58993;DHT22;44782;0.000;0.000;2023-11-21T05:07:18;17.20;62.10
58993;DHT22;44782;0.000;0.000;2023-11-21T05:09:33;17.20;62.10
58993;DHT22;44782;0.000;0.000;2023-11-21T05:11:49;17.20;62.10
58993;DHT22;44782;0.000;0.000;2023-11-21T05:14:05;17.20;62.10
58993;DHT22;44782;0.000;0.000;2023-11-21T05:16:22;17.20;62.10
58993;DHT22;44782;0.000;0.000;2023-11-21T05:18:38;17.20;62.10
58993;DHT22;44782;0.000;0.000;2023-11-21T05:20:56;17.20;62.10
58993;DHT22;44782;0.000;0.000;2023-11-21T05:23:11;17.20;62.10
58993;DHT22;44782;0.000;0.000;2023-11-21T05:25:27;17.20;62.20
58993;DHT22;44782;0.000;0.000;2023-11-21T05:27:43;17.20;62.10
58993;DHT22;44782;0.000;0.000;2023-11-21T05:29:58;17.20;62.10
58993;DHT22;44782;0.000;0.000;2023-11-21T05:32:14;17.20;62.00
58993;DHT22;44782;0.000;0.000;2023-11-21T05:34:29;17.20;62.10
58993;DHT22;44782;0.000;0.000;2023-11-21T05:36:45;17.20;62.00
58993;DHT22;44782;0.000;0.000;2023-11-21T05:39:01;17.20;62.10
58993;DHT22;44782;0.000;0.000;2023-11-21T05:41:18;17.20;62.10
58993;DHT22;44782;0.000;0.000;2023-11-21T05:43:34;17.20;62.10
58993;DHT22;44782;0.000;0.000;2023-11-21T05:45:51;17.20;62.10
58993;DHT22;44782;0.000;0.000;2023-11-21T05:48:07;17.10;62.10
58993;DHT22;44782;0.000;0.000;2023-11-21T05:50:22;17.20;62.90
58993;DHT22;44782;0.000;0.000;2023-11-21T05:52:38;17.10;62.00
58993;DHT22;44782;0.000;0.000;2023-11-21T05:54:55;17.10;62.00
58993;DHT22;44782;0.000;0.000;2023-11-21T05:57:11;17.10;62.00
58993;DHT22;44782;0.000;0.000;2023-11-21T05:59:26;17.10;62.00
58993;DHT22;44782;0.000;0.000;2023-11-21T06:01:42;17.10;62.10
58993;DHT22;44782;0.000;0.000;2023-11-21T06:03:58;17.10;62.00
58993;DHT22;44782;0.000;0.000;2023-11-21T06:06:14;17.10;62.00
58993;DHT22;44782;0.000;0.000;2023-11-21T06:08:30;17.10;62.00
58993;DHT22;44782;0.000;0.000;2023-11-21T06:10:46;17.10;62.10
58993;DHT22;44782;0.000;0.000;2023-11-21T06:13:04;17.10;62.10
58993;DHT22;44782;0.000;0.000;2023-11-21T06:15:20;17.10;62.20
58993;DHT22;44782;0.000;0.000;2023-11-21T06:17:37;17.10;62.50
58993;DHT22;44782;0.000;0.000;2023-11-21T06:19:54;17.10;62.60
58993;DHT22;44782;0.000;0.000;2023-11-21T06:22:10;17.10;62.90
58993;DHT22;44782;0.000;0.000;2023-11-21T06:24:26;17.10;63.10
58993;DHT22;44782;0.000;0.000;2023-11-21T06:26:42;17.10;63.20
58993;DHT22;44782;0.000;0.000;2023-11-21T06:28:57;17.10;63.40
58993;DHT22;44782;0.000;0.000;2023-11-21T06:31:13;17.10;63.40
58993;DHT22;44782;0.000;0.000;2023-11-21T06:33:29;17.10;63.50
58993;DHT22;44782;0.000;0.000;2023-11-21T06:35:45;17.10;63.60
58993;DHT22;44782;0.000;0.000;2023-11-21T06:38:01;17.10;63.60
58993;DHT22;44782;0.000;0.000;2023-11-21T06:40:17;17.10;63.70
58993;DHT22;44782;0.000;0.000;2023-11-21T06:42:36;17.10;63.80
58993;DHT22;44782;0.000;0.000;2023-11-21T06:44:53;17.10;63.90
58993;DHT22;44782;0.000;0.000;2023-11-21T06:47:12;17.10;64.00
58993;DHT22;44782;0.000;0.000;2023-11-21T06:49:28;17.20;64.00
58993;DHT22;44782;0.000;0.000;2023-11-21T06:51:43;17.10;64.10
58993;DHT22;44782;0.000;0.000;2023-11-21T06:53:59;17.10;64.10
58993;DHT22;44782;0.000;0.000;2023-11-21T06:56:16;17.10;64.10
58993;DHT22;44782;0.000;0.000;2023-11-21T06:58:33;17.10;64.30
58993;DHT22;44782;0.000;0.000;2023-11-21T07:00:49;17.10;64.40
58993;DHT22;44782;0.000;0.000;2023-11-21T07:03:05;17.10;64.40
58993;DHT22;44782;0.000;0.000;2023-11-21T07:05:22;17.10;64.50
58993;DHT22;44782;0.000;0.000;2023-11-21T07:07:37;17.10;64.50
58993;DHT22;44782;0.000;0.000;2023-11-21T07:09:54;17.10;64.50
58993;DHT22;44782;0.000;0.000;2023-11-21T07:12:09;17.10;64.60
58993;DHT22;44782;0.000;0.000;2023-11-21T07:14:26;17.10;64.60
58993;DHT22;44782;0.000;0.000;2023-11-21T07:16:42;17.10;64.60
58993;DHT22;44782;0.000;0.000;2023-11-21T07:18:57;17.10;64.70
58993;DHT22;44782;0.000;0.000;2023-11-21T07:21:14;17.10;64.60
58993;DHT22;44782;0.000;0.000;2023-11-21T07:23:31;17.10;64.60
58993;DHT22;44782;0.000;0.000;2023-11-21T07:25:47;17.10;64.60
58993;DHT22;44782;0.000;0.000;2023-11-21T07:28:02;17.10;64.60
58993;DHT22;44782;0.000;0.000;2023-11-21T07:30:18;17.10;64.80
58993;DHT22;44782;0.000;0.000;2023-11-21T07:32:34;17.10;64.60
58993;DHT22;44782;0.000;0.000;2023-11-21T07:34:49;17.10;64.60
58993;DHT22;44782;0.000;0.000;2023-11-21T07:37:05;17.00;64.50
58993;DHT22;44782;0.000;0.000;2023-11-21T07:39:20;17.00;64.50
58993;DHT22;44782;0.000;0.000;2023-11-21T07:41:36;17.00;64.50
58993;DHT22;44782;0.000;0.000;2023-11-21T07:43:53;17.10;64.50
58993;DHT22;44782;0.000;0.000;2023-11-21T07:46:11;17.00;64.40
58993;DHT22;44782;0.000;0.000;2023-11-21T07:48:30;17.00;64.40
58993;DHT22;44782;0.000;0.000;2023-11-21T07:50:46;17.00;64.30
58993;DHT22;44782;0.000;0.000;2023-11-21T07:53:03;17.00;64.30
58993;DHT22;44782;0.000;0.000;2023-11-21T07:55:20;17.00;64.40
58993;DHT22;44782;0.000;0.000;2023-11-21T07:57:36;17.00;64.30
58993;DHT22;44782;0.000;0.000;2023-11-21T07:59:52;17.00;64.30
58993;DHT22;44782;0.000;0.000;2023-11-21T08:02:09;17.00;64.30
58993;DHT22;44782;0.000;0.000;2023-11-21T08:04:25;17.00;64.20
58993;DHT22;44782;0.000;0.000;2023-11-21T08:06:40;17.00;64.20
58993;DHT22;44782;0.000;0.000;2023-11-21T08:08:57;17.00;64.20
58993;DHT22;44782;0.000;0.000;2023-11-21T08:11:12;17.00;64.10
58993;DHT22;44782;0.000;0.000;2023-11-21T08:13:29;16.90;64.80
58993;DHT22;44782;0.000;0.000;2023-11-21T08:15:45;16.90;64.00
58993;DHT22;44782;0.000;0.000;2023-11-21T08:18:01;17.00;64.10
58993;DHT22;44782;0.000;0.000;2023-11-21T08:20:17;16.90;64.00
58993;DHT22;44782;0.000;0.000;2023-11-21T08:22:33;17.00;64.00
58993;DHT22;44782;0.000;0.000;2023-11-21T08:24:49;16.90;64.00
58993;DHT22;44782;0.000;0.000;2023-11-21T08:27:05;16.90;63.90
58993;DHT22;44782;0.000;0.000;2023-11-21T08:29:22;16.90;63.90
58993;DHT22;44782;0.000;0.000;2023-11-21T08:31:38;16.90;63.90
58993;DHT22;44782;0.000;0.000;2023-11-21T08:33:55;16.90;63.90
58993;DHT22;44782;0.000;0.000;2023-11-21T08:36:13;16.90;63.90
58993;DHT22;44782;0.000;0.000;2023-11-21T08:38:29;16.90;63.90
58993;DHT22;44782;0.000;0.000;2023-11-21T08:40:44;16.90;63.90
58993;DHT22;44782;0.000;0.000;2023-11-21T08:43:00;16.90;63.90
58993;DHT22;44782;0.000;0.000;2023-11-21T08:45:16;16.90;63.90
58993;DHT22;44782;0.000;0.000;2023-11-21T08:47:32;16.90;63.90
58993;DHT22;44782;0.000;0.000;2023-11-21T08:49:48;16.90;63.80
58993;DHT22;44782;0.000;0.000;2023-11-21T08:52:04;16.90;63.80
58993;DHT22;44782;0.000;0.000;2023-11-21T08:54:20;16.90;63.70
58993;DHT22;44782;0.000;0.000;2023-11-21T08:56:36;16.90;63.80
58993;DHT22;44782;0.000;0.000;2023-11-21T08:58:52;16.90;63.70
58993;DHT22;44782;0.000;0.000;2023-11-21T09:01:08;16.90;63.70
58993;DHT22;44782;0.000;0.000;2023-11-21T09:03:23;16.90;63.70
58993;DHT22;44782;0.000;0.000;2023-11-21T09:05:39;16.90;63.70
58993;DHT22;44782;0.000;0.000;2023-11-21T09:07:55;16.90;63.70
58993;DHT22;44782;0.000;0.000;2023-11-21T09:10:11;16.90;63.70
58993;DHT22;44782;0.000;0.000;2023-11-21T09:12:27;16.90;63.70
58993;DHT22;44782;0.000;0.000;2023-11-21T09:14:43;16.90;63.70
58993;DHT22;44782;0.000;0.000;2023-11-21T09:16:59;16.90;63.70
58993;DHT22;44782;0.000;0.000;2023-11-21T09:19:15;16.90;63.70
58993;DHT22;44782;0.000;0.000;2023-11-21T09:21:31;16.90;63.70
58993;DHT22;44782;0.000;0.000;2023-11-21T09:23:47;16.90;63.70
58993;DHT22;44782;0.000;0.000;2023-11-21T09:26:03;16.90;63.60
58993;DHT22;44782;0.000;0.000;2023-11-21T09:28:20;16.80;63.50
58993;DHT22;44782;0.000;0.000;2023-11-21T09:30:36;16.80;63.60
58993;DHT22;44782;0.000;0.000;2023-11-21T09:32:52;16.80;63.60
58993;DHT22;44782;0.000;0.000;2023-11-21T09:35:08;16.80;63.60
58993;DHT22;44782;0.000;0.000;2023-11-21T09:37:24;16.80;63.50
58993;DHT22;44782;0.000;0.000;2023-11-21T09:39:40;16.80;63.50
58993;DHT22;44782;0.000;0.000;2023-11-21T09:46:59;16.80;63.50
58993;DHT22;44782;0.000;0.000;2023-11-21T09:49:17;16.80;63.50
58993;DHT22;44782;0.000;0.000;2023-11-21T09:51:35;16.80;63.50
58993;DHT22;44782;0.000;0.000;2023-11-21T09:53:54;16.80;63.50
58993;DHT22;44782;0.000;0.000;2023-11-21T09:56:10;16.80;63.50
58993;DHT22;44782;0.000;0.000;2023-11-21T09:58:27;16.80;63.50
58993;DHT22;44782;0.000;0.000;2023-11-21T10:00:44;16.80;63.50
58993;DHT22;44782;0.000;0.000;2023-11-21T10:03:00;16.80;63.50
58993;DHT22;44782;0.000;0.000;2023-11-21T10:05:18;16.80;63.50
58993;DHT22;44782;0.000;0.000;2023-11-21T10:07:39;16.80;63.50
58993;DHT22;44782;0.000;0.000;2023-11-21T10:09:57;16.80;63.50
58993;DHT22;44782;0.000;0.000;2023-11-21T10:12:17;16.80;63.50
58993;DHT22;44782;0.000;0.000;2023-11-21T10:14:37;16.80;63.40
58993;DHT22;44782;0.000;0.000;2023-11-21T10:16:55;16.80;63.10
58993;DHT22;44782;0.000;0.000;2023-11-21T10:19:12;16.80;63.50
58993;DHT22;44782;0.000;0.000;2023-11-21T10:21:32;16.80;63.50
58993;DHT22;44782;0.000;0.000;2023-11-21T10:23:48;16.80;63.50
58993;DHT22;44782;0.000;0.000;2023-11-21T10:26:04;16.70;63.40
58993;DHT22;44782;0.000;0.000;2023-11-21T10:28:21;16.80;63.50
58993;DHT22;44782;0.000;0.000;2023-11-21T10:30:38;16.80;63.50
58993;DHT22;44782;0.000;0.000;2023-11-21T10:32:59;16.80;63.40
58993;DHT22;44782;0.000;0.000;2023-11-21T10:35:15;16.80;63.40
58993;DHT22;44782;0.000;0.000;2023-11-21T10:37:31;16.80;63.40
58993;DHT22;44782;0.000;0.000;2023-11-21T10:39:46;16.80;63.50
58993;DHT22;44782;0.000;0.000;2023-11-21T10:42:02;16.80;63.40
58993;DHT22;44782;0.000;0.000;2023-11-21T10:44:18;16.70;63.40
58993;DHT22;44782;0.000;0.000;2023-11-21T10:46:39;16.80;63.40
58993;DHT22;44782;0.000;0.000;2023-11-21T10:48:55;16.70;63.40
58993;DHT22;44782;0.000;0.000;2023-11-21T10:51:11;16.70;63.40
58993;DHT22;44782;0.000;0.000;2023-11-21T10:53:28;16.70;63.30
58993;DHT22;44782;0.000;0.000;2023-11-21T10:55:44;16.70;63.30
58993;DHT22;44782;0.000;0.000;2023-11-21T10:58:02;16.70;63.30
58993;DHT22;44782;0.000;0.000;2023-11-21T11:00:21;16.70;63.30
58993;DHT22;44782;0.000;0.000;2023-11-21T11:02:37;16.70;63.30
58993;DHT22;44782;0.000;0.000;2023-11-21T11:04:54;16.80;63.40
58993;DHT22;44782;0.000;0.000;2023-11-21T11:07:13;16.70;63.30
58993;DHT22;44782;0.000;0.000;2023-11-21T11:09:31;16.70;63.40
58993;DHT22;44782;0.000;0.000;2023-11-21T11:11:51;16.80;64.10
58993;DHT22;44782;0.000;0.000;2023-11-21T11:14:12;16.70;63.30
58993;DHT22;44782;0.000;0.000;2023-11-21T11:16:28;16.80;63.30
58993;DHT22;44782;0.000;0.000;2023-11-21T11:18:44;16.80;63.40
58993;DHT22;44782;0.000;0.000;2023-11-21T11:21:23;16.70;63.30
58993;DHT22;44782;0.000;0.000;2023-11-21T11:23:51;16.70;63.20
58993;DHT22;44782;0.000;0.000;2023-11-21T11:26:09;16.70;63.30
58993;DHT22;44782;0.000;0.000;2023-11-21T11:28:35;16.70;63.40
58993;DHT22;44782;0.000;0.000;2023-11-21T11:34:08;16.80;63.30
58993;DHT22;44782;0.000;0.000;2023-11-21T11:36:49;16.80;63.20
58993;DHT22;44782;0.000;0.000;2023-11-21T11:39:38;16.70;63.20
58993;DHT22;44782;0.000;0.000;2023-11-21T11:41:56;16.70;63.20
58993;DHT22;44782;0.000;0.000;2023-11-21T11:47:13;16.70;63.70
58993;DHT22;44782;0.000;0.000;2023-11-21T11:49:29;16.70;63.20
58993;DHT22;44782;0.000;0.000;2023-11-21T11:51:44;16.70;63.40
58993;DHT22;44782;0.000;0.000;2023-11-21T11:54:01;16.70;63.40
58993;DHT22;44782;0.000;0.000;2023-11-21T11:56:29;16.70;63.40
58993;DHT22;44782;0.000;0.000;2023-11-21T11:58:51;16.70;63.20
58993;DHT22;44782;0.000;0.000;2023-11-21T12:01:07;16.70;63.30
58993;DHT22;44782;0.000;0.000;2023-11-21T12:03:23;16.70;63.40
58993;DHT22;44782;0.000;0.000;2023-11-21T12:05:40;16.70;63.30
58993;DHT22;44782;0.000;0.000;2023-11-21T12:08:01;16.70;63.30
58993;DHT22;44782;0.000;0.000;2023-11-21T12:10:20;16.70;63.30
58993;DHT22;44782;0.000;0.000;2023-11-21T12:12:36;16.70;63.30
58993;DHT22;44782;0.000;0.000;2023-11-21T12:14:51;16.70;63.20
58993;DHT22;44782;0.000;0.000;2023-11-21T12:17:07;16.70;63.20
58993;DHT22;44782;0.000;0.000;2023-11-21T12:19:24;16.70;64.00
58993;DHT22;44782;0.000;0.000;2023-11-21T12:21:40;16.70;63.20
58993;DHT22;44782;0.000;0.000;2023-11-21T12:24:04;16.70;63.20
58993;DHT22;44782;0.000;0.000;2023-11-21T12:26:24;16.70;63.20
58993;DHT22;44782;0.000;0.000;2023-11-21T12:28:39;16.70;63.20
58993;DHT22;44782;0.000;0.000;2023-11-21T12:30:55;16.70;63.20
58993;DHT22;44782;0.000;0.000;2023-11-21T12:33:12;16.70;63.60
58993;DHT22;44782;0.000;0.000;2023-11-21T12:35:34;16.70;63.20
58993;DHT22;44782;0.000;0.000;2023-11-21T12:37:51;16.70;63.20
58993;DHT22;44782;0.000;0.000;2023-11-21T12:40:08;16.70;63.20
58993;DHT22;44782;0.000;0.000;2023-11-21T12:42:26;16.70;63.10
58993;DHT22;44782;0.000;0.000;2023-11-21T12:44:42;16.70;63.20
58993;DHT22;44782;0.000;0.000;2023-11-21T12:47:01;16.70;63.10
58993;DHT22;44782;0.000;0.000;2023-11-21T12:49:17;16.70;63.10
58993;DHT22;44782;0.000;0.000;2023-11-21T12:51:33;16.70;63.20
58993;DHT22;44782;0.000;0.000;2023-11-21T12:53:50;16.70;63.10
58993;DHT22;44782;0.000;0.000;2023-11-21T12:56:07;16.70;63.10
58993;DHT22;44782;0.000;0.000;2023-11-21T12:58:25;16.70;63.10
58993;DHT22;44782;0.000;0.000;2023-11-21T13:00:45;16.70;63.10
58993;DHT22;44782;0.000;0.000;2023-11-21T13:03:01;16.70;63.10
58993;DHT22;44782;0.000;0.000;2023-11-21T13:05:24;16.70;63.10
58993;DHT22;44782;0.000;0.000;2023-11-21T13:07:43;16.70;63.10
58993;DHT22;44782;0.000;0.000;2023-11-21T13:10:02;16.70;63.10
58993;DHT22;44782;0.000;0.000;2023-11-21T13:12:24;16.70;63.10
58993;DHT22;44782;0.000;0.000;2023-11-21T13:14:40;16.70;63.10
58993;DHT22;44782;0.000;0.000;2023-11-21T13:16:56;16.70;63.40
58993;DHT22;44782;0.000;0.000;2023-11-21T13:19:11;16.70;63.10
58993;DHT22;44782;0.000;0.000;2023-11-21T13:21:27;16.70;63.10
58993;DHT22;44782;0.000;0.000;2023-11-21T13:23:43;16.70;63.10
58993;DHT22;44782;0.000;0.000;2023-11-21T13:26:01;16.70;63.10
58993;DHT22;44782;0.000;0.000;2023-11-21T13:28:19;16.70;63.10
58993;DHT22;44782;0.000;0.000;2023-11-21T13:30:37;16.70;63.10
58993;DHT22;44782;0.000;0.000;2023-11-21T13:32:55;16.70;63.00
58993;DHT22;44782;0.000;0.000;2023-11-21T13:35:17;16.70;63.00
58993;DHT22;44782;0.000;0.000;2023-11-21T13:37:36;16.70;63.10
58993;DHT22;44782;0.000;0.000;2023-11-21T13:39:52;16.70;63.00
58993;DHT22;44782;0.000;0.000;2023-11-21T13:42:08;16.70;63.00
58993;DHT22;44782;0.000;0.000;2023-11-21T13:44:27;16.80;63.00
58993;DHT22;44782;0.000;0.000;2023-11-21T13:46:49;16.70;62.90
58993;DHT22;44782;0.000;0.000;2023-11-21T13:49:05;16.70;63.60
58993;DHT22;44782;0.000;0.000;2023-11-21T13:51:25;16.80;63.00
58993;DHT22;44782;0.000;0.000;2023-11-21T13:53:52;16.80;63.00
58993;DHT22;44782;0.000;0.000;2023-11-21T13:56:10;16.70;62.90
58993;DHT22;44782;0.000;0.000;2023-11-21T13:58:26;16.80;62.90
58993;DHT22;44782;0.000;0.000;2023-11-21T14:00:56;16.80;62.90
58993;DHT22;44782;0.000;0.000;2023-11-21T14:03:12;16.80;62.90
58993;DHT22;44782;0.000;0.000;2023-11-21T14:05:37;16.80;62.90
58993;DHT22;44782;0.000;0.000;2023-11-21T14:07:52;16.80;62.90
58993;DHT22;44782;0.000;0.000;2023-11-21T14:10:08;16.80;63.60
58993;DHT22;44782;0.000;0.000;2023-11-21T14:12:28;16.80;63.20
58993;DHT22;44782;0.000;0.000;2023-11-21T14:14:44;16.80;62.90
58993;DHT22;44782;0.000;0.000;2023-11-21T14:17:03;16.80;62.80
58993;DHT22;44782;0.000;0.000;2023-11-21T14:19:22;16.80;62.80
58993;DHT22;44782;0.000;0.000;2023-11-21T14:21:46;16.80;62.90
58993;DHT22;44782;0.000;0.000;2023-11-21T14:24:04;16.80;62.90
58993;DHT22;44782;0.000;0.000;2023-11-21T14:26:24;16.80;62.80
58993;DHT22;44782;0.000;0.000;2023-11-21T14:28:40;16.80;62.80
58993;DHT22;44782;0.000;0.000;2023-11-21T14:30:57;16.80;62.90
58993;DHT22;44782;0.000;0.000;2023-11-21T14:33:12;16.80;62.80
58993;DHT22;44782;0.000;0.000;2023-11-21T14:35:28;16.80;62.80
58993;DHT22;44782;0.000;0.000;2023-11-21T14:37:47;16.80;62.90
58993;DHT22;44782;0.000;0.000;2023-11-21T14:40:03;16.80;62.80
58993;DHT22;44782;0.000;0.000;2023-11-21T14:42:20;16.80;62.90
58993;DHT22;44782;0.000;0.000;2023-11-21T14:44:40;16.80;62.80
58993;DHT22;44782;0.000;0.000;2023-11-21T14:46:57;16.80;62.80
58993;DHT22;44782;0.000;0.000;2023-11-21T14:49:13;16.80;62.80
58993;DHT22;44782;0.000;0.000;2023-11-21T14:51:35;16.80;62.90